createdAt,value
2022-08-02T00:00:48.072Z,1.67
2022-08-02T00:03:16.586Z,1.93
2022-08-02T00:05:54.013Z,1.10
2022-08-02T00:08:28.566Z,1.83
2022-08-02T00:10:57.230Z,3.03
2022-08-02T00:13:26.978Z,0.73
2022-08-02T00:15:55.166Z,2.17
2022-08-02T00:18:23.488Z,2.80
2022-08-02T00:20:55.465Z,3.83
2022-08-02T00:23:23.898Z,2.50
2022-08-02T00:25:54.519Z,2.57
2022-08-02T00:28:27.383Z,3.30
2022-08-02T00:30:58.220Z,4.20
2022-08-02T00:34:26.292Z,2.57
2022-08-02T00:36:15.273Z,1.83
2022-08-02T00:38:43.738Z,1.67
2022-08-02T00:41:16.938Z,3.27
2022-08-02T00:43:45.465Z,4.33
2022-08-02T00:46:15.782Z,2.93
2022-08-02T00:48:48.608Z,3.37
2022-08-02T00:51:18.955Z,2.73
2022-08-02T00:53:47.394Z,2.40
2022-08-02T00:56:15.671Z,7.20
2022-08-02T00:58:46.353Z,3.97
2022-08-02T01:01:16.872Z,3.07
2022-08-02T01:03:46.100Z,4.70
2022-08-02T01:06:14.312Z,3.20
2022-08-02T01:08:45.244Z,6.40
2022-08-02T01:11:13.425Z,3.30
2022-08-02T01:13:42.449Z,5.50
2022-08-02T01:16:17.583Z,6.80
2022-08-02T01:18:54.395Z,3.50
2022-08-02T01:21:37.212Z,6.30
2022-08-02T01:24:21.946Z,3.53
2022-08-02T01:26:56.567Z,7.30
2022-08-02T01:29:30.876Z,4.03
2022-08-02T01:32:16.258Z,5.57
2022-08-02T01:34:52.147Z,4.03
2022-08-02T01:37:24.088Z,2.40
2022-08-02T01:40:04.923Z,6.53
2022-08-02T01:42:34.085Z,3.03
2022-08-02T01:45:05.161Z,1.83
2022-08-02T01:47:40.300Z,2.80
2022-08-02T01:50:14.132Z,9.50
2022-08-02T01:52:53.265Z,5.63
2022-08-02T01:55:35.167Z,2.60
2022-08-02T01:58:21.662Z,2.27
2022-08-02T02:00:53.731Z,3.70
2022-08-02T02:03:25.142Z,5.63
2022-08-02T02:05:57.149Z,5.73
2022-08-02T02:08:29.259Z,5.67
2022-08-02T02:12:11.680Z,3.77
2022-08-02T02:13:50.917Z,2.33
2022-08-02T02:16:38.782Z,3.03
2022-08-02T02:19:10.209Z,5.80
2022-08-02T02:21:41.696Z,3.13
2022-08-02T02:24:12.291Z,2.63
2022-08-02T02:26:46.445Z,1.97
2022-08-02T02:29:29.561Z,2.10
2022-08-02T02:32:00.920Z,3.70
2022-08-02T02:34:33.392Z,2.10
2022-08-02T02:37:06.286Z,7.07
2022-08-02T02:39:36.232Z,2.37
2022-08-02T02:42:09.148Z,2.80
2022-08-02T02:44:40.468Z,7.43
2022-08-02T02:47:13.326Z,7.13
2022-08-02T02:49:44.348Z,5.43
2022-08-02T02:52:15.952Z,6.53
2022-08-02T02:54:45.222Z,4.63
2022-08-02T02:57:14.078Z,8.40
2022-08-02T02:59:49.743Z,5.43
2022-08-02T03:02:21.596Z,6.57
2022-08-02T03:04:57.125Z,5.67
2022-08-02T03:07:27.032Z,8.83
2022-08-02T03:09:55.781Z,4.93
2022-08-02T03:12:31.389Z,3.90
2022-08-02T03:15:05.227Z,9.07
2022-08-02T03:17:42.689Z,7.63
2022-08-02T03:20:14.493Z,6.87
2022-08-02T03:22:43.371Z,5.90
2022-08-02T03:25:13.251Z,4.60
2022-08-02T03:27:41.867Z,2.90
2022-08-02T03:30:11.826Z,4.03
2022-08-02T03:32:44.165Z,4.17
2022-08-02T03:35:19.853Z,3.73
2022-08-02T03:37:53.795Z,4.53
2022-08-02T03:40:23.251Z,6.80
2022-08-02T03:42:52.841Z,5.53
2022-08-02T03:45:22.012Z,4.33
2022-08-02T03:47:58.771Z,2.73
2022-08-02T03:50:28.764Z,4.13
2022-08-02T03:52:58.187Z,5.60
2022-08-02T03:55:26.587Z,3.37
2022-08-02T03:57:55.476Z,5.17
2022-08-02T04:00:25.508Z,5.83
2022-08-02T04:02:55.517Z,3.37
2022-08-02T04:05:34.536Z,3.57
2022-08-02T04:08:34.897Z,4.07
2022-08-02T04:11:08.650Z,9.27
2022-08-02T04:13:39.198Z,6.17
2022-08-02T04:16:13.744Z,2.97
2022-08-02T04:18:49.187Z,1.60
2022-08-02T04:21:20.940Z,0.77
2022-08-02T04:23:52.798Z,2.17
2022-08-02T04:26:26.834Z,6.77
2022-08-02T04:28:57.137Z,1.90
2022-08-02T04:31:32.881Z,5.80
2022-08-02T04:34:03.218Z,3.83
2022-08-02T04:36:41.957Z,3.73
2022-08-02T04:44:36.672Z,5.83
2022-08-02T04:48:02.589Z,6.67
2022-08-02T04:50:32.334Z,3.90
2022-08-02T04:53:00.591Z,4.03
2022-08-02T05:01:35.150Z,4.83
2022-08-02T05:04:03.467Z,4.00
2022-08-02T05:06:33.561Z,4.77
2022-08-02T05:09:24.247Z,5.17
2022-08-02T05:15:23.769Z,6.60
2022-08-02T05:18:27.890Z,7.17
2022-08-02T05:21:06.369Z,10.77
2022-08-02T05:23:40.107Z,6.23
2022-08-02T05:26:29.659Z,5.13
2022-08-02T05:29:14.755Z,5.07
2022-08-02T05:31:53.251Z,8.70
2022-08-02T05:34:36.909Z,7.63
2022-08-02T05:37:10.029Z,8.37
2022-08-02T05:39:55.340Z,4.83
2022-08-02T05:42:27.630Z,7.77
2022-08-02T05:51:54.864Z,10.40
2022-08-02T05:54:46.449Z,5.37
2022-08-02T06:03:28.267Z,10.33
2022-08-02T06:06:13.964Z,8.17
2022-08-02T06:09:23.225Z,6.53
2022-08-02T06:12:26.289Z,11.23
2022-08-02T06:15:31.139Z,8.80
2022-08-02T06:22:33.088Z,10.17
2022-08-02T06:24:19.418Z,6.03
2022-08-02T06:26:53.027Z,11.00
2022-08-02T06:29:23.640Z,10.90
2022-08-02T06:31:55.553Z,10.53
2022-08-02T06:34:23.806Z,9.10
2022-08-02T06:37:05.837Z,10.47
2022-08-02T06:43:33.705Z,10.80
2022-08-02T06:48:55.095Z,9.40
2022-08-02T06:51:23.459Z,11.43
2022-08-02T06:53:51.922Z,8.70
2022-08-02T06:56:23.007Z,7.60
2022-08-02T06:59:06.260Z,9.73
2022-08-02T07:01:39.752Z,6.93
2022-08-02T07:04:11.058Z,6.60
2022-08-02T07:06:39.424Z,8.60
2022-08-02T07:09:20.736Z,8.73
2022-08-02T07:11:50.055Z,6.57
2022-08-02T07:14:22.974Z,5.77
2022-08-02T07:16:51.548Z,8.97
2022-08-02T07:19:21.802Z,9.53
2022-08-02T07:22:22.932Z,6.13
2022-08-02T07:25:21.508Z,13.83
2022-08-02T07:27:51.488Z,6.67
2022-08-02T07:30:27.107Z,10.50
2022-08-02T07:32:55.987Z,8.23
2022-08-02T07:35:26.165Z,8.70
2022-08-02T07:38:07.921Z,7.30
2022-08-02T07:40:43.195Z,8.27
2022-08-02T07:51:43.287Z,7.57
2022-08-02T07:54:29.584Z,13.10
2022-08-02T07:57:01.553Z,10.30
2022-08-02T07:59:31.553Z,11.80
2022-08-02T08:02:02.251Z,12.23
2022-08-02T08:04:33.215Z,10.73
2022-08-02T08:07:05.272Z,15.33
2022-08-02T08:18:47.507Z,15.13
2022-08-02T08:21:16.044Z,7.10
2022-08-02T08:24:05.367Z,11.93
2022-08-02T08:26:34.867Z,12.40
2022-08-02T08:29:06.087Z,11.77
2022-08-02T08:31:38.057Z,16.60
2022-08-02T08:34:06.865Z,11.60
2022-08-02T08:36:38.062Z,14.40
2022-08-02T08:39:07.962Z,18.83
2022-08-02T08:41:37.682Z,16.00
2022-08-02T08:44:06.478Z,16.03
2022-08-02T08:46:39.228Z,13.83
2022-08-02T08:52:53.733Z,10.73
2022-08-02T08:55:29.646Z,16.80
2022-08-02T09:01:16.057Z,15.23
2022-08-02T09:07:11.603Z,10.70
2022-08-02T09:09:44.018Z,10.87
2022-08-02T09:12:32.630Z,14.87
2022-08-02T09:15:35.473Z,13.20
2022-08-02T09:18:24.885Z,12.60
2022-08-02T09:21:15.751Z,12.77
2022-08-02T09:24:31.819Z,11.67
2022-08-02T09:27:24.975Z,15.60
2022-08-02T09:30:29.873Z,18.77
2022-08-02T09:33:42.957Z,15.17
2022-08-02T09:36:30.410Z,11.77
2022-08-02T09:42:39.720Z,15.10
2022-08-02T09:45:14.295Z,12.60
2022-08-02T09:47:54.033Z,17.13
2022-08-02T09:50:43.996Z,14.40
2022-08-02T09:56:46.737Z,10.27
2022-08-02T10:02:41.968Z,9.57
2022-08-02T10:08:04.872Z,18.87
2022-08-02T10:10:44.339Z,17.57
2022-08-02T10:16:34.152Z,19.67
2022-08-02T10:20:02.999Z,18.57
2022-08-02T10:23:17.299Z,13.00
2022-08-02T10:26:11.644Z,10.30
2022-08-02T10:32:02.164Z,13.30
2022-08-02T10:38:19.998Z,18.57
2022-08-02T10:40:55.597Z,9.27
2022-08-02T10:43:53.025Z,9.30
2022-08-02T10:49:50.880Z,14.70
2022-08-02T10:56:17.844Z,9.57
2022-08-02T10:58:47.069Z,11.43
2022-08-02T11:01:38.825Z,10.10
2022-08-02T11:07:35.120Z,9.67
2022-08-02T11:10:53.363Z,16.80
2022-08-02T11:16:48.916Z,7.80
2022-08-02T11:22:26.050Z,10.17
2022-08-02T11:25:02.940Z,17.23
2022-08-02T11:27:43.524Z,15.37
2022-08-02T11:30:26.802Z,11.83
2022-08-02T11:33:03.057Z,12.87
2022-08-02T11:35:52.378Z,12.23
2022-08-02T11:38:52.945Z,18.30
2022-08-02T11:41:46.516Z,16.87
2022-08-02T11:44:12.411Z,14.37
2022-08-02T11:46:42.967Z,20.47
2022-08-02T11:49:16.863Z,15.80
2022-08-02T11:52:11.633Z,15.43
2022-08-02T11:57:28.335Z,16.03
2022-08-02T12:00:19.816Z,15.40
2022-08-02T12:02:52.193Z,9.53
2022-08-02T12:08:06.864Z,11.90
2022-08-02T12:10:37.757Z,9.50
2022-08-02T12:20:13.787Z,11.43
2022-08-02T12:22:49.791Z,12.93
2022-08-02T12:31:14.431Z,16.47
2022-08-02T12:34:31.510Z,8.90
2022-08-02T12:37:13.181Z,11.43
2022-08-02T12:42:50.906Z,8.47
2022-08-02T12:46:15.050Z,8.70
2022-08-02T12:52:40.435Z,9.63
2022-08-02T12:56:00.807Z,17.07
2022-08-02T12:58:55.768Z,14.30
2022-08-02T13:01:49.359Z,11.73
2022-08-02T13:04:20.404Z,18.60
2022-08-02T13:09:48.442Z,10.60
2022-08-02T13:18:06.321Z,11.47
2022-08-02T13:23:54.311Z,12.87
2022-08-02T13:26:40.728Z,10.80
2022-08-02T13:29:37.057Z,13.30
2022-08-02T13:35:18.226Z,11.43
2022-08-02T13:38:09.476Z,9.87
2022-08-02T13:41:33.888Z,11.47
2022-08-02T13:55:15.533Z,17.70
2022-08-02T13:58:01.604Z,14.30
2022-08-02T14:00:37.097Z,14.60
2022-08-02T14:09:44.441Z,13.13
2022-08-02T14:13:11.101Z,12.00
2022-08-02T14:16:13.558Z,10.27
2022-08-02T14:22:11.243Z,9.57
2022-08-02T14:28:15.311Z,15.43
2022-08-02T14:37:38.883Z,13.37
2022-08-02T14:43:26.622Z,10.33
2022-08-02T14:46:08.771Z,8.03
2022-08-02T14:48:40.154Z,12.03
2022-08-02T14:51:31.741Z,11.83
2022-08-02T14:54:03.743Z,13.43
2022-08-02T14:56:51.513Z,9.57
2022-08-02T15:02:21.646Z,12.37
2022-08-02T15:04:59.256Z,10.80
2022-08-02T15:07:29.000Z,14.97
2022-08-02T15:10:07.179Z,13.37
2022-08-02T15:12:47.853Z,12.43
2022-08-02T15:15:19.427Z,10.83
2022-08-02T15:17:48.309Z,8.50
2022-08-02T15:20:25.587Z,14.40
2022-08-02T15:22:58.113Z,14.67
2022-08-02T15:25:32.112Z,9.97
2022-08-02T15:28:00.745Z,17.30
2022-08-02T15:31:02.311Z,13.13
2022-08-02T15:33:33.277Z,12.63
2022-08-02T15:36:07.936Z,10.93
2022-08-02T15:38:55.892Z,13.03
2022-08-02T15:41:50.406Z,14.50
2022-08-02T15:44:46.611Z,13.00
2022-08-02T15:47:23.915Z,8.83
2022-08-02T15:50:03.664Z,8.50
2022-08-02T15:52:35.042Z,14.30
2022-08-02T15:56:12.777Z,15.80
2022-08-02T15:59:17.731Z,16.60
2022-08-02T16:01:49.544Z,18.40
2022-08-02T16:04:20.273Z,18.53
2022-08-02T16:09:37.955Z,12.87
2022-08-02T16:13:23.719Z,19.13
2022-08-02T16:33:56.150Z,11.33
2022-08-02T16:36:41.345Z,14.50
2022-08-02T16:43:10.285Z,10.73
2022-08-02T16:52:21.120Z,12.60
2022-08-02T16:54:50.238Z,9.90
2022-08-02T16:57:23.875Z,12.63
2022-08-02T17:03:56.452Z,6.63
2022-08-02T17:06:51.958Z,16.83
2022-08-02T17:10:03.108Z,14.47
2022-08-02T17:12:22.357Z,12.00
2022-08-02T17:14:56.152Z,16.90
2022-08-02T17:17:44.596Z,14.93
2022-08-02T17:20:18.087Z,15.27
2022-08-02T17:22:49.907Z,8.87
2022-08-02T17:25:28.637Z,10.30
2022-08-02T17:28:50.847Z,8.10
2022-08-02T17:31:42.096Z,9.07
2022-08-02T17:40:51.776Z,11.13
2022-08-02T17:43:25.941Z,13.07
2022-08-02T17:46:08.237Z,12.23
2022-08-02T17:52:49.469Z,15.87
2022-08-02T17:54:42.171Z,15.07
2022-08-02T17:57:22.730Z,14.37
2022-08-02T18:02:57.019Z,13.00
2022-08-02T18:05:38.947Z,12.13
2022-08-02T18:11:10.284Z,10.87
2022-08-02T18:13:44.530Z,12.00
2022-08-02T18:16:31.407Z,9.00
2022-08-02T18:21:54.047Z,23.37
2022-08-02T18:24:24.615Z,12.03
2022-08-02T18:26:59.110Z,19.13
2022-08-02T18:30:00.098Z,16.43
2022-08-02T18:34:00.466Z,10.13
2022-08-02T18:35:51.475Z,10.10
2022-08-02T18:38:28.026Z,17.23
2022-08-02T18:41:28.711Z,17.20
2022-08-02T18:44:04.265Z,12.23
2022-08-02T18:46:53.778Z,18.67
2022-08-02T18:49:46.832Z,21.20
2022-08-02T18:52:37.169Z,13.20
2022-08-02T18:55:17.668Z,10.30
2022-08-02T18:58:32.646Z,13.73
2022-08-02T19:01:14.894Z,7.97
2022-08-02T19:04:12.337Z,18.00
2022-08-02T19:10:50.604Z,12.40
2022-08-02T19:13:29.450Z,8.53
2022-08-02T19:16:05.111Z,9.50
2022-08-02T19:18:35.570Z,9.30
2022-08-02T19:22:18.753Z,9.67
2022-08-02T19:24:26.818Z,17.50
2022-08-02T19:27:13.946Z,8.13
2022-08-02T19:29:49.087Z,6.37
2022-08-02T19:33:08.872Z,15.80
2022-08-02T19:36:02.042Z,13.87
2022-08-02T19:39:00.587Z,9.80
2022-08-02T19:56:31.770Z,10.27
2022-08-02T19:59:13.213Z,8.30
2022-08-02T20:01:48.535Z,12.03
2022-08-02T20:10:28.583Z,7.57
2022-08-02T20:16:06.354Z,6.43
2022-08-02T20:21:53.090Z,9.03
2022-08-02T20:24:39.718Z,11.23
2022-08-02T20:27:11.459Z,6.77
2022-08-02T20:29:50.010Z,7.87
2022-08-02T20:32:31.583Z,7.20
2022-08-02T20:35:03.622Z,11.97
2022-08-02T20:38:00.764Z,8.20
2022-08-02T20:40:27.708Z,11.60
2022-08-02T20:42:56.942Z,8.73
2022-08-02T20:45:27.091Z,9.40
2022-08-02T20:48:06.975Z,6.80
2022-08-02T20:50:50.767Z,6.90
2022-08-02T20:53:54.691Z,6.70
2022-08-02T20:56:29.551Z,14.67
2022-08-02T20:59:03.829Z,6.73
2022-08-02T21:01:36.980Z,7.47
2022-08-02T21:04:34.661Z,7.70
2022-08-02T21:07:11.547Z,8.17
2022-08-02T21:10:02.050Z,9.53
2022-08-02T21:12:33.663Z,6.97
2022-08-02T21:15:02.372Z,10.43
2022-08-02T21:17:44.571Z,11.73
2022-08-02T21:20:27.159Z,6.80
2022-08-02T21:22:58.313Z,7.77
2022-08-02T21:25:50.645Z,7.40
2022-08-02T21:28:18.723Z,7.10
2022-08-02T21:33:57.041Z,8.37
2022-08-02T21:36:21.786Z,4.97
2022-08-02T21:39:05.837Z,13.83
2022-08-02T21:41:46.536Z,6.90
2022-08-02T21:44:25.907Z,9.90
2022-08-02T21:47:14.299Z,6.97
2022-08-02T21:50:09.491Z,8.13
2022-08-02T21:52:36.207Z,8.97
2022-08-02T21:56:02.584Z,9.23
2022-08-02T21:58:30.304Z,10.47
2022-08-02T22:01:12.917Z,8.33
2022-08-02T22:03:55.668Z,8.90
2022-08-02T22:06:34.793Z,9.70
2022-08-02T22:09:05.707Z,14.50
2022-08-02T22:11:55.595Z,8.97
2022-08-02T22:14:24.975Z,11.77
2022-08-02T22:22:50.459Z,12.10
2022-08-02T22:25:36.667Z,11.70
2022-08-02T22:28:37.311Z,10.20
2022-08-02T22:31:08.733Z,9.17
2022-08-02T22:34:01.854Z,11.40
2022-08-02T22:36:35.166Z,11.27
2022-08-02T22:39:25.728Z,10.03
2022-08-02T22:42:06.221Z,10.90
2022-08-02T22:44:39.489Z,12.40
2022-08-02T22:47:21.055Z,11.83
2022-08-02T22:49:54.326Z,10.20
2022-08-02T22:52:25.905Z,9.10
2022-08-02T22:54:55.010Z,8.90
2022-08-02T23:00:27.947Z,3.67
2022-08-02T23:03:06.843Z,6.93
2022-08-02T23:05:36.723Z,6.13
2022-08-02T23:10:51.332Z,6.47
2022-08-02T23:13:26.594Z,4.50
2022-08-02T23:17:00.364Z,10.60
2022-08-02T23:20:02.264Z,6.83
2022-08-02T23:22:52.068Z,9.10
2022-08-02T23:25:53.932Z,8.40
2022-08-02T23:29:17.815Z,7.67
2022-08-02T23:31:51.485Z,6.87
2022-08-02T23:34:31.944Z,7.27
2022-08-02T23:40:04.192Z,6.50
2022-08-02T23:42:32.995Z,7.70
2022-08-02T23:45:02.440Z,4.13
2022-08-02T23:47:40.443Z,5.47
2022-08-02T23:50:10.613Z,3.27
2022-08-02T23:52:39.764Z,2.40
2022-08-02T23:55:45.927Z,4.47
2022-08-02T23:58:29.350Z,4.40
